RYR824W LFOB-EPMO
Flight info
| Callsign | RYR824W |
|---|---|
| Flight time | N/A |
| Altitude | 39000 |
| Route | RANUX DCT VALEK DCT LIPNI DCT LIMGO DCT MASEK DCT ROBEL DCT POZUM DCT ADVAB P150 OBOKU DCT DOSIX |
| Aircraft | B38M/M-SADE3FGILRWY/SB1 |
Departure
| Time | 2026-04-25 14:24 |
|---|---|
| Airport | Beauvais-Tillé airport (LFOB) |
Arrival
| Time | N/A |
|---|---|
| Airport | Warsaw Modlin Airport (EPMO) |
| Time | Latitude | Longitude | Altitude | Speed | Heading |
|---|---|---|---|---|---|
| 2026-04-25 14:00 | 49.45828 | 2.11117 | 351 ft | 0 kts | 32° |
| 2026-04-25 14:15 | 49.45799 | 2.11088 | 357 ft | 3 kts | 28° |
| 2026-04-25 14:15 | 49.45777 | 2.11079 | 356 ft | 4 kts | 341° |
| 2026-04-25 14:16 | 49.45760 | 2.11104 | 360 ft | 4 kts | 301° |
| 2026-04-25 14:16 | 49.45752 | 2.11122 | 355 ft | 1 kts | 303° |
| 2026-04-25 14:21 | 49.45754 | 2.11119 | 355 ft | 1 kts | 304° |
| 2026-04-25 14:22 | 49.45768 | 2.11085 | 350 ft | 7 kts | 303° |
| 2026-04-25 14:22 | 49.45789 | 2.11008 | 355 ft | 8 kts | 255° |
| 2026-04-25 14:22 | 49.45758 | 2.10965 | 355 ft | 6 kts | 209° |
| 2026-04-25 14:22 | 49.45708 | 2.10923 | 360 ft | 11 kts | 208° |
| 2026-04-25 14:23 | 49.45634 | 2.10866 | 360 ft | 6 kts | 182° |
| 2026-04-25 14:23 | 49.45599 | 2.10922 | 352 ft | 10 kts | 124° |
| 2026-04-25 14:23 | 49.45508 | 2.11132 | 347 ft | 56 kts | 123° |
| 2026-04-25 14:23 | 49.45129 | 2.12004 | 335 ft | 136 kts | 124° |
| 2026-04-25 14:24 | 49.44520 | 2.13409 | 654 ft | 171 kts | 120° |
| 2026-04-25 14:24 | 49.44098 | 2.15155 | 1405 ft | 183 kts | 95° |
| 2026-04-25 14:24 | 49.44248 | 2.17102 | 2247 ft | 191 kts | 73° |
| 2026-04-25 14:24 | 49.44539 | 2.19240 | 2435 ft | 216 kts | 84° |
| 2026-04-25 14:25 | 49.44595 | 2.21638 | 2489 ft | 231 kts | 88° |
| 2026-04-25 14:25 | 49.44628 | 2.24200 | 2605 ft | 248 kts | 88° |
| 2026-04-25 14:25 | 49.44668 | 2.26897 | 2708 ft | 255 kts | 86° |
| 2026-04-25 14:25 | 49.44681 | 2.27789 | 2757 ft | 257 kts | 87° |
| 2026-04-25 14:26 | 49.44746 | 2.32390 | 2961 ft | 259 kts | 88° |
| 2026-04-25 14:26 | 49.44739 | 2.35169 | 3082 ft | 261 kts | 97° |
| 2026-04-25 14:26 | 49.44084 | 2.37765 | 3209 ft | 263 kts | 119° |
| 2026-04-25 14:26 | 49.43191 | 2.40237 | 3326 ft | 264 kts | 117° |
| 2026-04-25 14:27 | 49.42324 | 2.42696 | 3434 ft | 264 kts | 117° |
| 2026-04-25 14:27 | 49.41430 | 2.45179 | 3603 ft | 265 kts | 118° |
| 2026-04-25 14:27 | 49.40410 | 2.47544 | 3716 ft | 266 kts | 134° |
| 2026-04-25 14:27 | 49.38875 | 2.49102 | 3863 ft | 268 kts | 157° |
| 2026-04-25 14:28 | 49.37114 | 2.50111 | 3964 ft | 270 kts | 159° |
| 2026-04-25 14:28 | 49.35344 | 2.51150 | 4551 ft | 268 kts | 158° |
| 2026-04-25 14:28 | 49.33625 | 2.52178 | 5757 ft | 270 kts | 158° |
| 2026-04-25 14:28 | 49.31844 | 2.53257 | 6758 ft | 279 kts | 158° |
| 2026-04-25 14:29 | 49.30023 | 2.54371 | 7798 ft | 284 kts | 158° |
| 2026-04-25 14:29 | 49.28167 | 2.55509 | 8791 ft | 291 kts | 158° |
| 2026-04-25 14:29 | 49.26267 | 2.56680 | 9799 ft | 295 kts | 158° |
| 2026-04-25 14:29 | 49.24349 | 2.57859 | 10712 ft | 303 kts | 159° |
| 2026-04-25 14:30 | 49.22361 | 2.59084 | 11279 ft | 320 kts | 159° |
| 2026-04-25 14:30 | 49.18089 | 2.61712 | 12835 ft | 338 kts | 159° |
| 2026-04-25 14:30 | 49.15887 | 2.63062 | 13099 ft | 339 kts | 159° |
| 2026-04-25 14:31 | 49.13699 | 2.64402 | 13151 ft | 339 kts | 159° |
| 2026-04-25 14:31 | 49.11643 | 2.66141 | 13128 ft | 339 kts | 140° |
| 2026-04-25 14:31 | 49.10145 | 2.68915 | 13158 ft | 341 kts | 118° |
| 2026-04-25 14:31 | 49.09414 | 2.72292 | 13158 ft | 341 kts | 97° |
| 2026-04-25 14:32 | 49.09306 | 2.75905 | 13169 ft | 342 kts | 91° |
| 2026-04-25 14:32 | 49.09259 | 2.79545 | 13213 ft | 344 kts | 90° |
| 2026-04-25 14:32 | 49.09226 | 2.83222 | 13767 ft | 346 kts | 90° |
| 2026-04-25 14:32 | 49.09198 | 2.86896 | 14613 ft | 348 kts | 90° |
| 2026-04-25 14:33 | 49.09174 | 2.90621 | 15343 ft | 354 kts | 90° |
| 2026-04-25 14:33 | 49.09150 | 2.94410 | 16094 ft | 359 kts | 90° |
| 2026-04-25 14:33 | 49.09125 | 2.98196 | 16811 ft | 363 kts | 90° |
| 2026-04-25 14:33 | 49.09099 | 3.02084 | 17540 ft | 368 kts | 90° |
| 2026-04-25 14:34 | 49.09071 | 3.06018 | 18240 ft | 373 kts | 90° |
| 2026-04-25 14:34 | 49.09041 | 3.10010 | 18868 ft | 377 kts | 90° |
| 2026-04-25 14:34 | 49.09010 | 3.14031 | 19490 ft | 381 kts | 90° |
| 2026-04-25 14:34 | 49.08977 | 3.18098 | 20100 ft | 385 kts | 90° |
| 2026-04-25 14:35 | 49.08942 | 3.22198 | 20695 ft | 389 kts | 90° |
| 2026-04-25 14:35 | 49.08906 | 3.26306 | 21279 ft | 392 kts | 90° |
| 2026-04-25 14:35 | 49.08867 | 3.30496 | 21852 ft | 396 kts | 90° |
| 2026-04-25 14:35 | 49.08827 | 3.34722 | 22431 ft | 400 kts | 90° |
| 2026-04-25 14:36 | 49.08799 | 3.37537 | 22815 ft | 402 kts | 90° |
| 2026-04-25 14:36 | 49.08741 | 3.43235 | 23561 ft | 407 kts | 90° |
| 2026-04-25 14:36 | 49.08695 | 3.47577 | 24038 ft | 410 kts | 90° |
| 2026-04-25 14:36 | 49.08648 | 3.51944 | 24508 ft | 413 kts | 91° |
| 2026-04-25 14:37 | 49.08636 | 3.54856 | 24806 ft | 415 kts | 86° |
| 2026-04-25 14:37 | 49.08971 | 3.59294 | 25244 ft | 417 kts | 82° |
| 2026-04-25 14:37 | 49.09303 | 3.63651 | 25681 ft | 420 kts | 83° |
| 2026-04-25 14:37 | 49.09616 | 3.68105 | 26141 ft | 423 kts | 83° |
| 2026-04-25 14:38 | 49.09917 | 3.72589 | 26588 ft | 425 kts | 83° |
| 2026-04-25 14:38 | 49.10212 | 3.77097 | 27019 ft | 428 kts | 83° |
| 2026-04-25 14:38 | 49.10504 | 3.81630 | 27455 ft | 431 kts | 83° |
| 2026-04-25 14:38 | 49.10796 | 3.86190 | 27874 ft | 433 kts | 83° |
| 2026-04-25 14:39 | 49.11088 | 3.90788 | 28284 ft | 436 kts | 83° |
| 2026-04-25 14:39 | 49.11377 | 3.95367 | 28689 ft | 438 kts | 84° |
| 2026-04-25 14:39 | 49.11669 | 4.00017 | 29094 ft | 441 kts | 84° |
| 2026-04-25 14:39 | 49.11959 | 4.04685 | 29488 ft | 443 kts | 84° |
| 2026-04-25 14:40 | 49.12250 | 4.09388 | 29875 ft | 446 kts | 84° |
| 2026-04-25 14:40 | 49.12538 | 4.14068 | 30245 ft | 448 kts | 84° |
| 2026-04-25 14:40 | 49.12828 | 4.18824 | 30566 ft | 450 kts | 84° |
| 2026-04-25 14:40 | 49.13118 | 4.23605 | 30883 ft | 453 kts | 84° |
| 2026-04-25 14:41 | 49.13409 | 4.28419 | 31197 ft | 455 kts | 84° |
| 2026-04-25 14:41 | 49.13701 | 4.33238 | 31516 ft | 457 kts | 83° |
| 2026-04-25 14:41 | 49.14398 | 4.37913 | 31802 ft | 456 kts | 67° |
| 2026-04-25 14:41 | 49.15627 | 4.42393 | 32101 ft | 458 kts | 66° |
| 2026-04-25 14:42 | 49.16828 | 4.46928 | 32383 ft | 460 kts | 66° |
| 2026-04-25 14:42 | 49.17650 | 4.49992 | 32603 ft | 462 kts | 66° |
| 2026-04-25 14:42 | 49.19276 | 4.56021 | 32970 ft | 465 kts | 66° |
| 2026-04-25 14:42 | 49.20515 | 4.60608 | 33273 ft | 467 kts | 66° |
| 2026-04-25 14:43 | 49.21755 | 4.65207 | 33577 ft | 469 kts | 66° |
| 2026-04-25 14:43 | 49.23004 | 4.69846 | 33845 ft | 471 kts | 66° |
| 2026-04-25 14:43 | 49.24236 | 4.74434 | 34166 ft | 472 kts | 66° |
| 2026-04-25 14:43 | 49.25487 | 4.79099 | 34498 ft | 472 kts | 66° |
| 2026-04-25 14:44 | 49.26729 | 4.83741 | 34838 ft | 471 kts | 66° |
| 2026-04-25 14:44 | 49.27970 | 4.88390 | 35175 ft | 470 kts | 66° |
| 2026-04-25 14:44 | 49.29208 | 4.93032 | 35535 ft | 469 kts | 66° |
| 2026-04-25 14:44 | 49.30440 | 4.97668 | 35892 ft | 467 kts | 66° |
| 2026-04-25 14:45 | 49.31648 | 5.02220 | 36185 ft | 467 kts | 66° |
| 2026-04-25 14:45 | 49.32870 | 5.06829 | 36494 ft | 466 kts | 66° |
| 2026-04-25 14:45 | 49.34090 | 5.11444 | 36791 ft | 466 kts | 66° |
| 2026-04-25 14:45 | 49.35309 | 5.16066 | 37076 ft | 465 kts | 66° |
| 2026-04-25 14:46 | 49.36522 | 5.20671 | 37346 ft | 465 kts | 66° |
| 2026-04-25 14:46 | 49.37719 | 5.25229 | 37619 ft | 464 kts | 66° |
| 2026-04-25 14:46 | 49.38928 | 5.29837 | 37878 ft | 464 kts | 66° |
| 2026-04-25 14:46 | 49.40135 | 5.34447 | 38147 ft | 463 kts | 66° |
| 2026-04-25 14:47 | 49.41337 | 5.39045 | 38412 ft | 463 kts | 66° |
| 2026-04-25 14:47 | 49.42129 | 5.42084 | 38603 ft | 461 kts | 66° |
| 2026-04-25 14:47 | 49.43707 | 5.48149 | 38897 ft | 461 kts | 66° |
| 2026-04-25 14:47 | 49.44894 | 5.52718 | 39061 ft | 461 kts | 66° |
| 2026-04-25 14:48 | 49.47271 | 5.61901 | 39127 ft | 461 kts | 66° |
| 2026-04-25 14:48 | 49.49620 | 5.71003 | 39134 ft | 460 kts | 66° |
| 2026-04-25 14:49 | 49.51944 | 5.80200 | 39127 ft | 460 kts | 67° |
| 2026-04-25 14:49 | 49.54207 | 5.89374 | 39127 ft | 459 kts | 66° |
| 2026-04-25 14:50 | 49.56477 | 5.98571 | 39128 ft | 459 kts | 66° |
| 2026-04-25 14:50 | 49.57613 | 6.03187 | 39131 ft | 459 kts | 66° |